createdAt,value
2022-10-18T00:02:17.636Z,61.00
2022-10-18T00:04:44.277Z,62.10
2022-10-18T00:07:10.871Z,62.30
2022-10-18T00:09:37.881Z,62.30
2022-10-18T00:12:04.524Z,63.90
2022-10-18T00:14:31.117Z,65.00
2022-10-18T00:16:57.856Z,65.30
2022-10-18T00:19:27.149Z,65.10
2022-10-18T00:21:58.318Z,64.50
2022-10-18T00:24:27.470Z,65.70
2022-10-18T00:26:57.293Z,64.90
2022-10-18T00:29:26.218Z,65.00
2022-10-18T00:31:52.812Z,66.00
2022-10-18T00:34:19.429Z,66.10
2022-10-18T00:36:46.013Z,65.90
2022-10-18T00:39:16.987Z,66.80
2022-10-18T00:41:44.313Z,67.70
2022-10-18T00:44:10.923Z,66.80
2022-10-18T00:46:43.125Z,67.50
2022-10-18T00:49:17.446Z,68.00
2022-10-18T00:52:04.954Z,67.20
2022-10-18T00:54:33.662Z,67.20
2022-10-18T00:57:01.117Z,67.80
2022-10-18T00:59:28.242Z,67.60
2022-10-18T01:01:55.000Z,68.80
2022-10-18T01:04:22.482Z,68.50
2022-10-18T01:07:22.849Z,68.90
2022-10-18T01:10:11.077Z,69.00
2022-10-18T01:13:14.392Z,69.30
2022-10-18T01:15:49.021Z,69.50
2022-10-18T01:18:24.977Z,71.00
2022-10-18T01:21:00.591Z,70.70
2022-10-18T01:23:30.158Z,71.10
2022-10-18T01:26:02.871Z,70.20
2022-10-18T01:28:58.512Z,70.80
2022-10-18T01:31:35.071Z,71.50
2022-10-18T01:34:05.646Z,72.00
2022-10-18T01:36:44.574Z,72.00
2022-10-18T01:39:21.912Z,71.30
2022-10-18T01:41:49.394Z,71.20
2022-10-18T01:44:20.029Z,72.30
2022-10-18T01:46:47.242Z,71.50
2022-10-18T01:49:14.383Z,73.40
2022-10-18T01:51:40.958Z,71.20
2022-10-18T01:54:07.642Z,71.90
2022-10-18T01:57:00.086Z,72.90
2022-10-18T01:59:44.793Z,73.80
2022-10-18T02:02:39.180Z,72.70
2022-10-18T02:05:11.609Z,73.40
2022-10-18T02:08:18.948Z,73.20
2022-10-18T02:10:53.186Z,73.10
2022-10-18T02:13:21.689Z,74.00
2022-10-18T02:15:50.829Z,74.60
2022-10-18T02:18:28.628Z,75.10
2022-10-18T02:20:55.323Z,74.90
2022-10-18T02:23:26.080Z,73.50
2022-10-18T02:25:53.473Z,75.30
2022-10-18T02:28:20.571Z,74.90
2022-10-18T02:30:51.836Z,75.00
2022-10-18T02:33:21.682Z,75.20
2022-10-18T02:35:52.637Z,75.10
2022-10-18T02:38:20.619Z,75.70
2022-10-18T02:40:47.223Z,76.70
2022-10-18T02:43:14.315Z,75.10
2022-10-18T02:45:41.027Z,75.70
2022-10-18T02:48:07.918Z,74.50
2022-10-18T02:50:34.501Z,75.50
2022-10-18T02:53:01.170Z,76.60
2022-10-18T02:57:55.715Z,75.80
2022-10-18T03:00:22.426Z,75.60
2022-10-18T03:02:49.175Z,76.10
2022-10-18T03:05:15.871Z,76.30
2022-10-18T03:07:42.468Z,75.90
2022-10-18T03:10:09.232Z,76.10
2022-10-18T03:12:35.846Z,76.10
2022-10-18T03:15:02.737Z,75.40
2022-10-18T03:17:29.660Z,75.30
2022-10-18T03:19:56.460Z,75.60
2022-10-18T03:22:25.153Z,74.70
2022-10-18T03:24:51.785Z,75.60
2022-10-18T03:27:18.505Z,75.20
2022-10-18T03:29:45.110Z,76.30
2022-10-18T03:32:11.720Z,75.00
2022-10-18T03:34:38.339Z,75.50
2022-10-18T03:37:05.549Z,77.40
2022-10-18T03:39:32.354Z,76.00
2022-10-18T03:41:58.960Z,76.20
2022-10-18T03:44:25.554Z,76.20
2022-10-18T03:46:52.183Z,76.00
2022-10-18T03:49:19.132Z,74.40
2022-10-18T03:51:45.748Z,76.80
2022-10-18T03:54:12.372Z,77.00
2022-10-18T03:56:38.961Z,77.50
2022-10-18T03:59:05.609Z,76.20
2022-10-18T04:01:32.301Z,75.70
2022-10-18T04:03:59.023Z,76.60
2022-10-18T04:06:25.918Z,76.80
2022-10-18T04:08:52.560Z,76.60
2022-10-18T04:11:19.245Z,77.90
2022-10-18T04:13:46.558Z,78.00
2022-10-18T04:16:13.168Z,77.20
2022-10-18T04:18:39.800Z,76.90
2022-10-18T04:21:06.554Z,76.40
2022-10-18T04:23:36.321Z,76.60
2022-10-18T04:26:06.049Z,76.50
2022-10-18T04:28:33.804Z,76.20
2022-10-18T04:31:00.557Z,75.30
2022-10-18T04:33:27.241Z,76.60
2022-10-18T04:35:53.905Z,76.80
2022-10-18T04:38:20.524Z,76.40
2022-10-18T04:40:47.156Z,77.40
2022-10-18T04:45:54.908Z,79.00
2022-10-18T04:48:21.594Z,77.50
2022-10-18T04:50:49.725Z,77.40
2022-10-18T04:53:17.004Z,76.50
2022-10-18T04:55:48.942Z,78.10
2022-10-18T04:58:16.728Z,78.60
2022-10-18T05:00:43.591Z,78.20
2022-10-18T05:03:14.173Z,78.00
2022-10-18T05:06:00.942Z,77.40
2022-10-18T05:08:29.034Z,78.20
2022-10-18T05:10:55.799Z,78.40
2022-10-18T05:13:22.461Z,79.00
2022-10-18T05:15:50.567Z,79.50
2022-10-18T05:18:17.536Z,78.90
2022-10-18T05:20:44.158Z,80.20
2022-10-18T05:23:11.169Z,78.70
2022-10-18T05:25:41.939Z,79.30
2022-10-18T05:28:21.230Z,79.00
2022-10-18T05:30:55.875Z,80.40
2022-10-18T05:33:22.525Z,79.60
2022-10-18T05:35:49.515Z,80.50
2022-10-18T05:38:16.214Z,80.10
2022-10-18T05:40:43.103Z,80.10
2022-10-18T05:43:09.778Z,80.00
2022-10-18T05:45:36.387Z,80.20
2022-10-18T05:48:05.135Z,81.20
2022-10-18T05:50:35.485Z,81.20
2022-10-18T05:53:11.951Z,81.70
2022-10-18T05:55:46.761Z,81.30
2022-10-18T05:58:29.214Z,81.00
2022-10-18T06:01:02.776Z,80.30
2022-10-18T06:03:36.713Z,79.90
2022-10-18T06:06:11.704Z,81.10
2022-10-18T06:08:40.941Z,80.60
2022-10-18T06:11:14.086Z,80.90
2022-10-18T06:14:14.038Z,81.40
2022-10-18T06:16:43.712Z,80.60
2022-10-18T06:19:22.146Z,81.30
2022-10-18T06:21:54.644Z,82.30
2022-10-18T06:24:28.896Z,82.10
2022-10-18T06:27:04.024Z,83.10
2022-10-18T06:29:34.179Z,81.90
2022-10-18T06:32:02.272Z,81.50
2022-10-18T06:34:28.971Z,82.20
2022-10-18T06:36:56.708Z,82.50
2022-10-18T06:39:25.680Z,83.30
2022-10-18T06:41:52.749Z,83.30
2022-10-18T06:44:20.107Z,83.50
2022-10-18T06:46:47.946Z,81.90
2022-10-18T06:49:18.335Z,81.30
2022-10-18T06:51:46.161Z,82.80
2022-10-18T06:54:17.845Z,83.00
2022-10-18T06:56:45.340Z,82.70
2022-10-18T06:59:12.124Z,81.90
2022-10-18T07:01:38.982Z,82.30
2022-10-18T07:04:05.755Z,81.80
2022-10-18T07:06:32.373Z,82.20
2022-10-18T07:08:59.324Z,82.30
2022-10-18T07:11:27.168Z,85.20
2022-10-18T07:13:55.489Z,83.60
2022-10-18T07:16:22.361Z,83.70
2022-10-18T07:18:51.128Z,85.00
2022-10-18T07:21:23.620Z,87.80
2022-10-18T07:23:51.029Z,86.10
2022-10-18T07:26:21.534Z,85.70
2022-10-18T07:28:51.126Z,86.60
2022-10-18T07:31:18.081Z,85.10
2022-10-18T07:33:44.951Z,85.50
2022-10-18T07:36:12.506Z,85.10
2022-10-18T07:38:39.511Z,86.20
2022-10-18T07:41:08.221Z,85.50
2022-10-18T07:43:35.933Z,85.40
2022-10-18T07:46:05.418Z,84.50
2022-10-18T07:48:32.147Z,81.30
2022-10-18T07:51:00.666Z,80.70
2022-10-18T07:53:28.368Z,80.60
2022-10-18T07:56:04.703Z,81.20
2022-10-18T07:58:34.601Z,82.50
2022-10-18T08:01:05.478Z,83.50
2022-10-18T08:03:32.649Z,82.80
2022-10-18T08:05:59.505Z,81.80
2022-10-18T08:08:26.923Z,83.20
2022-10-18T08:10:53.597Z,84.80
2022-10-18T08:13:20.434Z,86.40
2022-10-18T08:15:47.426Z,85.60
2022-10-18T08:18:14.340Z,84.50
2022-10-18T08:20:45.170Z,86.10
2022-10-18T08:23:12.304Z,87.50
2022-10-18T08:25:39.095Z,85.30
2022-10-18T08:28:07.042Z,86.20
2022-10-18T08:30:34.853Z,88.00
2022-10-18T08:33:02.309Z,89.50
2022-10-18T08:35:29.114Z,90.50
2022-10-18T08:37:55.914Z,90.30
2022-10-18T08:40:22.812Z,89.90
2022-10-18T08:43:01.266Z,91.20
2022-10-18T08:45:41.970Z,91.10
2022-10-18T08:48:21.929Z,91.10
2022-10-18T08:50:49.034Z,91.30
2022-10-18T08:53:32.406Z,90.80
2022-10-18T08:56:05.794Z,91.80
2022-10-18T08:58:33.740Z,92.00
2022-10-18T09:01:31.586Z,92.80
2022-10-18T09:04:24.259Z,92.60
2022-10-18T09:06:59.876Z,93.00
2022-10-18T09:09:42.389Z,93.60
2022-10-18T09:12:24.180Z,93.70
2022-10-18T09:15:04.251Z,94.20
2022-10-18T09:17:46.944Z,94.20
2022-10-18T09:20:19.861Z,94.40
2022-10-18T09:23:05.775Z,96.50
2022-10-18T09:25:37.404Z,96.70
2022-10-18T09:28:22.585Z,95.90
2022-10-18T09:31:00.400Z,95.40
2022-10-18T09:33:39.570Z,94.10
2022-10-18T09:36:08.472Z,94.50
2022-10-18T09:38:44.931Z,94.50
2022-10-18T09:41:28.052Z,94.50
2022-10-18T09:44:09.463Z,92.50
2022-10-18T09:46:45.829Z,92.60
2022-10-18T09:49:18.622Z,91.80
2022-10-18T09:51:46.066Z,92.10
2022-10-18T09:54:26.498Z,93.20
2022-10-18T09:57:02.807Z,91.60
2022-10-18T09:59:37.302Z,91.20
2022-10-18T10:02:04.769Z,90.90
2022-10-18T10:04:31.677Z,90.90
2022-10-18T10:07:01.257Z,91.70
2022-10-18T10:09:48.546Z,91.20
2022-10-18T10:12:26.889Z,91.70
2022-10-18T10:14:53.680Z,91.20
2022-10-18T10:17:29.747Z,91.60
2022-10-18T10:20:02.084Z,91.20
2022-10-18T10:22:36.653Z,91.80
2022-10-18T10:25:03.850Z,89.80
2022-10-18T10:27:35.134Z,90.60
2022-10-18T10:30:07.119Z,90.40
2022-10-18T10:32:47.179Z,90.00
2022-10-18T10:38:28.353Z,88.90
2022-10-18T10:40:55.931Z,87.40
2022-10-18T10:43:38.933Z,88.20
2022-10-18T10:46:09.641Z,86.30
2022-10-18T10:48:42.285Z,84.10
2022-10-18T10:51:12.982Z,84.00
2022-10-18T10:53:42.839Z,85.60
2022-10-18T10:56:35.474Z,82.60
2022-10-18T10:59:24.042Z,82.70
2022-10-18T11:02:10.857Z,81.20
2022-10-18T11:04:38.581Z,81.10
2022-10-18T11:07:32.747Z,80.50
2022-10-18T11:10:09.351Z,77.90
2022-10-18T11:12:45.877Z,80.30
2022-10-18T11:15:35.946Z,79.30
2022-10-18T11:18:14.692Z,77.10
2022-10-18T11:20:49.488Z,76.80
2022-10-18T11:23:17.865Z,75.10
2022-10-18T11:26:06.021Z,75.20
2022-10-18T11:28:53.412Z,74.70
2022-10-18T11:31:52.809Z,73.10
2022-10-18T11:34:53.969Z,71.70
2022-10-18T11:37:42.824Z,72.60
2022-10-18T11:40:24.051Z,70.10
2022-10-18T11:43:16.337Z,69.70
2022-10-18T11:46:00.629Z,67.70
2022-10-18T11:48:49.127Z,67.00
2022-10-18T11:51:35.405Z,66.00
2022-10-18T11:54:20.638Z,62.90
2022-10-18T11:56:59.055Z,61.10
2022-10-18T11:59:29.821Z,58.50
2022-10-18T12:02:34.571Z,57.00
2022-10-18T12:08:03.586Z,54.10
2022-10-18T12:10:44.493Z,53.00
2022-10-18T12:13:50.677Z,52.60
2022-10-18T12:16:33.465Z,53.40
2022-10-18T12:19:13.224Z,55.70
2022-10-18T12:21:40.911Z,57.20
2022-10-18T12:24:21.848Z,56.50
2022-10-18T12:26:50.881Z,57.50
2022-10-18T12:29:26.270Z,55.00
2022-10-18T12:32:24.870Z,53.50
2022-10-18T12:35:01.341Z,55.40
2022-10-18T12:37:55.235Z,60.30
2022-10-18T12:40:41.606Z,62.10
2022-10-18T12:43:19.272Z,62.50
2022-10-18T12:45:54.869Z,63.60
2022-10-18T12:48:38.675Z,62.50
2022-10-18T12:51:22.293Z,65.10
2022-10-18T12:54:12.143Z,64.00
2022-10-18T12:56:43.240Z,63.20
2022-10-18T12:59:15.963Z,62.40
2022-10-18T13:01:52.086Z,59.20
2022-10-18T13:04:28.083Z,62.50
2022-10-18T13:06:57.995Z,61.10
2022-10-18T13:09:27.426Z,58.20
2022-10-18T13:12:20.367Z,54.50
2022-10-18T13:15:12.408Z,62.00
2022-10-18T13:17:59.211Z,50.10
2022-10-18T13:20:43.074Z,46.20
2022-10-18T13:23:38.132Z,44.40
2022-10-18T13:26:17.247Z,51.50
2022-10-18T13:29:13.620Z,49.40
2022-10-18T13:31:48.333Z,24.60
2022-10-18T13:34:19.075Z,33.80
2022-10-18T13:37:01.779Z,26.50
2022-10-18T13:39:29.288Z,23.20
2022-10-18T13:41:57.739Z,19.50
2022-10-18T13:44:37.368Z,17.20
2022-10-18T13:47:04.013Z,8.40
2022-10-18T13:49:39.597Z,9.30
2022-10-18T13:52:18.344Z,8.70
2022-10-18T13:55:23.350Z,2.50
2022-10-18T13:58:15.415Z,1.00
2022-10-18T14:01:03.852Z,1.00
2022-10-18T14:03:57.337Z,1.00
2022-10-18T14:06:43.563Z,1.00
2022-10-18T14:12:41.664Z,1.00
2022-10-18T14:15:23.070Z,1.00
2022-10-18T14:17:52.842Z,1.00
2022-10-18T14:20:49.827Z,1.00
2022-10-18T14:23:31.606Z,1.00
2022-10-18T14:26:20.628Z,1.00
2022-10-18T14:29:03.626Z,1.00
2022-10-18T14:31:30.301Z,1.00
2022-10-18T14:33:58.956Z,1.00
2022-10-18T14:36:27.822Z,1.00
2022-10-18T14:39:02.164Z,1.00
2022-10-18T14:41:33.815Z,1.00
2022-10-18T14:44:16.314Z,1.00
2022-10-18T14:46:44.636Z,1.00
2022-10-18T14:49:12.776Z,1.00
2022-10-18T14:51:43.924Z,1.00
2022-10-18T14:54:32.759Z,1.00
2022-10-18T14:57:00.873Z,1.00
2022-10-18T14:59:29.896Z,1.00
2022-10-18T15:02:03.025Z,1.00
2022-10-18T15:04:35.397Z,1.00
2022-10-18T15:07:05.462Z,1.00
2022-10-18T15:09:33.436Z,1.00
2022-10-18T15:12:02.945Z,1.00
2022-10-18T15:14:30.520Z,1.00
2022-10-18T15:17:03.339Z,1.00
2022-10-18T15:19:36.641Z,1.00
2022-10-18T15:22:30.849Z,1.00
2022-10-18T15:25:05.672Z,1.00
2022-10-18T15:27:35.616Z,1.00
2022-10-18T15:30:09.123Z,1.00
2022-10-18T15:32:37.703Z,1.00
2022-10-18T15:35:10.561Z,1.00
2022-10-18T15:37:47.394Z,1.00
2022-10-18T15:40:23.394Z,1.00
2022-10-18T15:42:55.341Z,1.00
2022-10-18T15:45:24.946Z,1.00
2022-10-18T15:48:02.903Z,1.00
2022-10-18T15:50:44.873Z,1.00
2022-10-18T15:53:42.561Z,1.50
2022-10-18T15:56:36.023Z,3.00
2022-10-18T15:59:05.632Z,4.10
2022-10-18T16:01:38.699Z,3.50
2022-10-18T16:04:18.272Z,4.60
2022-10-18T16:06:45.212Z,4.00
2022-10-18T16:09:16.635Z,5.70
2022-10-18T16:11:44.116Z,5.00
2022-10-18T16:14:11.894Z,7.40
2022-10-18T16:16:39.548Z,6.20
2022-10-18T16:19:06.441Z,6.50
2022-10-18T16:21:38.031Z,7.20
2022-10-18T16:24:05.554Z,8.30
2022-10-18T16:26:32.300Z,8.50
2022-10-18T16:28:59.818Z,10.20
2022-10-18T16:31:31.247Z,10.90
2022-10-18T16:34:03.377Z,10.80
2022-10-18T16:36:33.424Z,11.80
2022-10-18T16:39:03.712Z,11.20
2022-10-18T16:41:30.333Z,10.80
2022-10-18T16:43:58.486Z,12.00
2022-10-18T16:46:29.897Z,14.30
2022-10-18T16:48:57.456Z,15.20
2022-10-18T16:51:24.408Z,16.50
2022-10-18T16:53:53.240Z,16.40
2022-10-18T16:56:28.586Z,17.90
2022-10-18T16:58:55.459Z,17.60
2022-10-18T17:01:23.533Z,17.30
2022-10-18T17:03:56.674Z,17.50
2022-10-18T17:06:25.692Z,19.00
2022-10-18T17:08:53.791Z,18.40
2022-10-18T17:11:21.332Z,19.70
2022-10-18T17:13:48.243Z,19.10
2022-10-18T17:16:22.183Z,19.70
2022-10-18T17:18:48.836Z,20.50
2022-10-18T17:21:15.456Z,21.80
2022-10-18T17:23:42.082Z,20.10
2022-10-18T17:26:27.676Z,20.40
2022-10-18T17:28:58.529Z,19.80
2022-10-18T17:31:25.496Z,20.50
2022-10-18T17:33:54.613Z,21.30
2022-10-18T17:36:21.611Z,22.80
2022-10-18T17:38:52.555Z,22.30
2022-10-18T17:41:19.327Z,22.10
2022-10-18T17:43:46.011Z,22.80
2022-10-18T17:46:13.185Z,23.30
2022-10-18T17:48:40.556Z,23.80
2022-10-18T17:51:14.724Z,23.40
2022-10-18T17:53:41.637Z,24.00
2022-10-18T17:56:08.620Z,24.10
2022-10-18T17:58:35.496Z,24.10
2022-10-18T18:01:28.525Z,25.70
2022-10-18T18:03:59.977Z,25.90
2022-10-18T18:06:35.436Z,26.10
2022-10-18T18:09:06.829Z,25.80
2022-10-18T18:11:34.609Z,26.20
2022-10-18T18:14:01.470Z,27.00
2022-10-18T18:16:30.217Z,26.40
2022-10-18T18:18:58.705Z,27.10
2022-10-18T18:21:26.617Z,27.70
2022-10-18T18:23:53.620Z,27.70
2022-10-18T18:26:21.900Z,27.30
2022-10-18T18:28:49.207Z,27.60
2022-10-18T18:31:18.332Z,28.00
2022-10-18T18:33:45.524Z,28.40
2022-10-18T18:36:12.556Z,27.60
2022-10-18T18:38:42.340Z,28.30
2022-10-18T18:41:16.485Z,29.00
2022-10-18T18:43:46.710Z,28.90
2022-10-18T18:46:13.693Z,28.90
2022-10-18T18:48:40.948Z,28.90
2022-10-18T18:51:11.702Z,28.60
2022-10-18T18:53:42.630Z,28.70
2022-10-18T18:56:14.172Z,28.70
2022-10-18T18:58:44.411Z,29.60
2022-10-18T19:01:19.886Z,29.40
2022-10-18T19:03:48.998Z,29.70
2022-10-18T19:06:18.747Z,29.70
2022-10-18T19:08:46.548Z,30.30
2022-10-18T19:11:25.441Z,30.60
2022-10-18T19:13:52.152Z,30.80
2022-10-18T19:16:32.290Z,31.00
2022-10-18T19:18:59.010Z,30.70
2022-10-18T19:21:28.280Z,30.60
2022-10-18T19:26:49.988Z,30.80
2022-10-18T19:29:21.804Z,30.90
2022-10-18T19:31:50.725Z,30.60
2022-10-18T19:34:18.732Z,31.40
2022-10-18T19:36:46.815Z,31.30
2022-10-18T19:39:25.408Z,31.40
2022-10-18T19:41:58.018Z,30.70
2022-10-18T19:44:28.685Z,31.00
2022-10-18T19:46:56.782Z,31.90
2022-10-18T19:49:23.701Z,31.60
2022-10-18T19:51:50.440Z,31.30
2022-10-18T19:54:17.155Z,32.20
2022-10-18T19:56:44.408Z,33.50
2022-10-18T19:59:12.386Z,34.50
2022-10-18T20:01:39.389Z,33.10
2022-10-18T20:04:07.354Z,35.30
2022-10-18T20:06:34.742Z,34.20
2022-10-18T20:09:01.631Z,34.80
2022-10-18T20:11:29.080Z,34.30
2022-10-18T20:13:56.170Z,34.30
2022-10-18T20:16:28.151Z,34.70
2022-10-18T20:19:00.616Z,34.50
2022-10-18T20:21:28.944Z,34.40
2022-10-18T20:23:56.139Z,35.20
2022-10-18T20:26:25.181Z,35.90
2022-10-18T20:28:57.236Z,36.80
2022-10-18T20:31:32.054Z,36.50
2022-10-18T20:34:02.952Z,35.80
2022-10-18T20:36:30.931Z,35.70
2022-10-18T20:38:58.434Z,36.20
2022-10-18T20:41:31.359Z,38.10
2022-10-18T20:44:03.158Z,37.50
2022-10-18T20:46:32.288Z,37.60
2022-10-18T20:48:59.064Z,37.20
2022-10-18T20:51:26.052Z,36.90
2022-10-18T20:53:54.539Z,37.00
2022-10-18T20:56:26.969Z,36.00
2022-10-18T20:58:56.728Z,35.40
2022-10-18T21:01:28.751Z,37.10
2022-10-18T21:04:01.539Z,38.10
2022-10-18T21:06:32.119Z,38.80
2022-10-18T21:09:07.220Z,40.60
2022-10-18T21:11:42.245Z,40.00
2022-10-18T21:14:13.757Z,39.80
2022-10-18T21:16:41.057Z,40.60
2022-10-18T21:19:27.983Z,41.80
2022-10-18T21:21:56.444Z,43.00
2022-10-18T21:24:24.320Z,44.50
2022-10-18T21:26:51.069Z,44.80
2022-10-18T21:29:21.888Z,44.00
2022-10-18T21:31:49.473Z,45.10
2022-10-18T21:34:17.498Z,46.30
2022-10-18T21:36:46.247Z,46.50
2022-10-18T21:39:15.585Z,46.20
2022-10-18T21:41:42.838Z,45.60
2022-10-18T21:44:10.789Z,47.00
2022-10-18T21:46:39.481Z,48.30
2022-10-18T21:49:07.387Z,46.50
2022-10-18T21:51:34.467Z,46.90
2022-10-18T21:54:01.232Z,46.60
2022-10-18T21:56:33.610Z,47.10
2022-10-18T21:59:01.790Z,46.40
2022-10-18T22:01:29.809Z,47.10
2022-10-18T22:03:57.111Z,48.10
2022-10-18T22:06:24.759Z,49.00
2022-10-18T22:08:56.461Z,47.30
2022-10-18T22:11:29.324Z,47.90
2022-10-18T22:13:56.665Z,47.10
2022-10-18T22:16:23.620Z,47.20
2022-10-18T22:18:51.309Z,47.40
2022-10-18T22:21:19.774Z,48.40
2022-10-18T22:23:49.898Z,48.40
2022-10-18T22:26:22.509Z,49.30
2022-10-18T22:29:01.544Z,48.00
2022-10-18T22:31:31.225Z,47.70
2022-10-18T22:34:06.415Z,48.90
2022-10-18T22:36:33.713Z,48.40
2022-10-18T22:39:00.800Z,49.80
2022-10-18T22:41:27.644Z,50.30
2022-10-18T22:43:55.578Z,48.40
2022-10-18T22:46:24.250Z,47.70
2022-10-18T22:48:50.881Z,48.30
2022-10-18T22:51:17.715Z,48.30
2022-10-18T22:53:44.929Z,48.70
2022-10-18T22:56:17.815Z,49.20
2022-10-18T22:58:44.721Z,49.10
2022-10-18T23:01:13.705Z,50.10
2022-10-18T23:03:40.569Z,51.00
2022-10-18T23:06:22.663Z,50.70
2022-10-18T23:08:49.740Z,51.50
2022-10-18T23:11:16.860Z,52.50
2022-10-18T23:13:43.684Z,52.30
2022-10-18T23:16:10.393Z,53.00
2022-10-18T23:18:37.166Z,53.10
2022-10-18T23:21:12.640Z,54.50
2022-10-18T23:23:41.761Z,55.30
2022-10-18T23:26:11.172Z,54.50
2022-10-18T23:28:39.835Z,54.00
2022-10-18T23:31:18.884Z,55.20
2022-10-18T23:33:50.701Z,55.50
2022-10-18T23:36:20.306Z,54.90
2022-10-18T23:38:47.117Z,55.10
2022-10-18T23:41:14.949Z,54.70
2022-10-18T23:43:42.368Z,54.50
2022-10-18T23:46:09.579Z,53.90
2022-10-18T23:48:36.473Z,53.10
2022-10-18T23:51:03.850Z,54.60
2022-10-18T23:53:31.108Z,54.00
2022-10-18T23:56:00.155Z,55.50
2022-10-18T23:58:28.419Z,55.20
